createdAt,value
2022-08-29T00:00:23.763Z,79.44
2022-08-29T00:02:56.115Z,78.68
2022-08-29T00:05:27.037Z,78.62
2022-08-29T00:08:04.283Z,80.04
2022-08-29T00:10:33.751Z,78.40
2022-08-29T00:13:01.966Z,78.47
2022-08-29T00:15:31.473Z,78.40
2022-08-29T00:18:09.861Z,77.43
2022-08-29T00:20:39.376Z,77.83
2022-08-29T00:23:09.010Z,78.15
2022-08-29T00:25:40.754Z,78.98
2022-08-29T00:28:08.838Z,78.78
2022-08-29T00:30:38.384Z,78.99
2022-08-29T00:33:06.717Z,78.62
2022-08-29T00:35:38.487Z,77.79
2022-08-29T00:38:16.600Z,77.87
2022-08-29T00:40:51.999Z,78.88
2022-08-29T00:43:24.731Z,78.97
2022-08-29T00:46:13.060Z,78.46
2022-08-29T00:48:43.434Z,78.74
2022-08-29T00:51:22.669Z,78.78
2022-08-29T00:53:58.536Z,78.31
2022-08-29T00:56:27.925Z,78.46
2022-08-29T00:59:01.873Z,79.18
2022-08-29T01:01:30.969Z,80.43
2022-08-29T01:04:00.501Z,80.27
2022-08-29T01:06:29.816Z,78.90
2022-08-29T01:08:59.949Z,80.19
2022-08-29T01:11:48.031Z,79.67
2022-08-29T01:14:18.561Z,80.32
2022-08-29T01:16:50.028Z,79.83
2022-08-29T01:19:24.805Z,80.04
2022-08-29T01:22:03.491Z,79.61
2022-08-29T01:24:38.167Z,79.83
2022-08-29T01:27:06.785Z,79.57
2022-08-29T01:29:35.655Z,78.92
2022-08-29T01:32:04.385Z,79.27
2022-08-29T01:34:33.037Z,78.30
2022-08-29T01:37:03.142Z,78.53
2022-08-29T01:39:37.523Z,78.25
2022-08-29T01:42:10.619Z,78.61
2022-08-29T01:44:42.517Z,78.41
2022-08-29T01:47:11.830Z,78.21
2022-08-29T01:49:41.258Z,78.89
2022-08-29T01:52:10.174Z,78.35
2022-08-29T01:54:41.413Z,78.45
2022-08-29T01:57:13.146Z,78.79
2022-08-29T01:59:42.266Z,79.22
2022-08-29T02:02:12.918Z,78.19
2022-08-29T02:04:42.759Z,79.16
2022-08-29T02:07:12.875Z,79.11
2022-08-29T02:09:45.975Z,78.41
2022-08-29T02:12:15.694Z,79.19
2022-08-29T02:14:49.334Z,78.74
2022-08-29T02:17:17.732Z,78.57
2022-08-29T02:19:46.122Z,78.57
2022-08-29T02:22:14.830Z,79.77
2022-08-29T02:24:44.625Z,78.99
2022-08-29T02:27:14.220Z,79.58
2022-08-29T02:29:43.720Z,78.84
2022-08-29T02:32:14.850Z,79.49
2022-08-29T02:34:48.540Z,78.59
2022-08-29T02:37:17.888Z,78.47
2022-08-29T02:39:50.902Z,77.67
2022-08-29T02:42:20.180Z,78.76
2022-08-29T02:44:48.804Z,78.57
2022-08-29T02:47:16.974Z,77.95
2022-08-29T02:49:45.767Z,77.37
2022-08-29T02:52:14.582Z,79.92
2022-08-29T02:54:43.763Z,79.36
2022-08-29T02:57:13.264Z,78.19
2022-08-29T02:59:41.847Z,76.87
2022-08-29T03:02:11.328Z,76.27
2022-08-29T03:04:39.787Z,78.13
2022-08-29T03:07:09.446Z,77.39
2022-08-29T03:09:37.668Z,77.27
2022-08-29T03:12:05.984Z,77.16
2022-08-29T03:14:36.888Z,77.23
2022-08-29T03:17:05.312Z,77.68
2022-08-29T03:19:37.545Z,76.26
2022-08-29T03:22:05.731Z,77.37
2022-08-29T03:24:35.680Z,77.62
2022-08-29T03:27:03.914Z,77.85
2022-08-29T03:29:34.184Z,77.59
2022-08-29T03:32:13.497Z,77.07
2022-08-29T03:34:43.164Z,77.14
2022-08-29T03:37:12.415Z,76.52
2022-08-29T03:39:40.968Z,75.84
2022-08-29T03:42:09.718Z,75.31
2022-08-29T03:44:40.865Z,75.11
2022-08-29T03:47:11.959Z,75.13
2022-08-29T03:49:41.163Z,75.43
2022-08-29T03:52:11.400Z,75.38
2022-08-29T03:54:40.034Z,75.49
2022-08-29T03:57:09.493Z,74.95
2022-08-29T03:59:37.881Z,75.86
2022-08-29T04:02:07.220Z,76.09
2022-08-29T04:04:57.209Z,76.03
2022-08-29T04:07:26.398Z,75.10
2022-08-29T04:09:54.887Z,74.82
2022-08-29T04:12:28.859Z,75.35
2022-08-29T04:14:57.112Z,75.33
2022-08-29T04:17:25.307Z,75.11
2022-08-29T04:19:55.280Z,74.17
2022-08-29T04:22:23.399Z,75.08
2022-08-29T04:24:52.641Z,75.17
2022-08-29T04:27:20.907Z,74.86
2022-08-29T04:29:50.143Z,75.57
2022-08-29T04:32:20.978Z,76.03
2022-08-29T04:34:50.745Z,75.06
2022-08-29T04:37:20.333Z,74.49
2022-08-29T04:39:49.441Z,74.43
2022-08-29T04:42:20.170Z,74.34
2022-08-29T04:44:51.335Z,73.58
2022-08-29T04:47:21.725Z,73.39
2022-08-29T04:49:56.603Z,73.92
2022-08-29T04:52:28.875Z,73.28
2022-08-29T04:54:58.505Z,73.92
2022-08-29T04:57:29.322Z,73.58
2022-08-29T05:00:00.010Z,72.89
2022-08-29T05:02:30.175Z,72.92
2022-08-29T05:04:58.398Z,73.34
2022-08-29T05:07:29.417Z,72.91
2022-08-29T05:10:00.341Z,72.54
2022-08-29T05:12:30.476Z,72.97
2022-08-29T05:14:59.149Z,73.01
2022-08-29T05:17:29.529Z,71.64
2022-08-29T05:19:57.745Z,71.95
2022-08-29T05:22:25.989Z,72.08
2022-08-29T05:24:58.219Z,72.39
2022-08-29T05:27:26.970Z,71.81
2022-08-29T05:29:56.772Z,72.19
2022-08-29T05:32:24.842Z,72.44
2022-08-29T05:34:55.995Z,73.06
2022-08-29T05:37:25.051Z,73.42
2022-08-29T05:39:53.243Z,72.64
2022-08-29T05:42:23.494Z,73.02
2022-08-29T05:44:54.293Z,73.35
2022-08-29T05:47:22.581Z,73.08
2022-08-29T05:49:52.246Z,73.04
2022-08-29T05:52:22.039Z,72.07
2022-08-29T05:54:50.529Z,72.22
2022-08-29T05:57:25.873Z,71.67
2022-08-29T05:59:56.285Z,72.75
2022-08-29T06:02:25.430Z,72.51
2022-08-29T06:04:55.161Z,72.42
2022-08-29T06:07:25.429Z,72.61
2022-08-29T06:09:55.020Z,72.34
2022-08-29T06:12:34.118Z,72.18
2022-08-29T06:15:03.731Z,72.45
2022-08-29T06:17:31.911Z,72.25
2022-08-29T06:20:03.391Z,72.54
2022-08-29T06:22:32.146Z,71.87
2022-08-29T06:25:11.847Z,72.15
2022-08-29T06:27:59.548Z,72.55
2022-08-29T06:30:32.721Z,72.61
2022-08-29T06:33:01.819Z,71.90
2022-08-29T06:35:31.126Z,71.93
2022-08-29T06:37:59.379Z,71.06
2022-08-29T06:40:38.281Z,71.65
2022-08-29T06:43:07.893Z,71.11
2022-08-29T06:45:44.111Z,71.83
2022-08-29T06:48:13.974Z,71.46
2022-08-29T06:50:45.668Z,72.74
2022-08-29T06:53:26.837Z,72.31
2022-08-29T06:56:06.727Z,71.01
2022-08-29T06:58:42.014Z,71.20
2022-08-29T07:01:13.494Z,71.31
2022-08-29T07:03:42.581Z,71.20
2022-08-29T07:06:18.588Z,71.10
2022-08-29T07:08:54.915Z,70.57
2022-08-29T07:11:26.025Z,71.70
2022-08-29T07:14:07.741Z,69.97
2022-08-29T07:16:38.946Z,70.85
2022-08-29T07:19:08.847Z,69.97
2022-08-29T07:21:38.507Z,69.04
2022-08-29T07:24:08.108Z,69.89
2022-08-29T07:26:39.044Z,69.22
2022-08-29T07:29:12.051Z,69.36
2022-08-29T07:31:40.314Z,68.90
2022-08-29T07:34:08.745Z,69.80
2022-08-29T07:36:38.528Z,69.13
2022-08-29T07:39:09.254Z,68.10
2022-08-29T07:41:38.545Z,67.96
2022-08-29T07:44:09.685Z,67.86
2022-08-29T07:46:39.493Z,66.62
2022-08-29T07:49:08.585Z,67.01
2022-08-29T07:51:37.402Z,66.87
2022-08-29T07:54:16.775Z,67.03
2022-08-29T07:56:48.088Z,66.91
2022-08-29T07:59:16.435Z,67.70
2022-08-29T08:01:48.612Z,66.64
2022-08-29T08:04:17.195Z,66.27
2022-08-29T08:06:47.971Z,66.89
2022-08-29T08:09:16.427Z,66.71
2022-08-29T08:11:46.198Z,66.16
2022-08-29T08:14:15.367Z,67.53
2022-08-29T08:16:46.110Z,67.63
2022-08-29T08:19:16.573Z,67.67
2022-08-29T08:21:49.791Z,67.14
2022-08-29T08:24:19.919Z,66.46
2022-08-29T08:26:53.021Z,66.12
2022-08-29T08:29:21.265Z,65.40
2022-08-29T08:31:53.215Z,64.67
2022-08-29T08:34:22.988Z,64.77
2022-08-29T08:36:51.087Z,64.56
2022-08-29T08:39:19.406Z,63.44
2022-08-29T08:41:53.712Z,63.34
2022-08-29T08:44:48.855Z,63.52
2022-08-29T08:47:24.678Z,63.69
2022-08-29T08:49:56.186Z,63.58
2022-08-29T08:52:31.424Z,63.44
2022-08-29T08:55:04.386Z,63.00
2022-08-29T08:57:39.712Z,62.72
2022-08-29T09:00:11.661Z,62.96
2022-08-29T09:02:52.649Z,62.09
2022-08-29T09:05:33.011Z,61.57
2022-08-29T09:08:06.984Z,61.21
2022-08-29T09:10:42.520Z,60.09
2022-08-29T09:13:21.642Z,60.50
2022-08-29T09:15:56.359Z,61.60
2022-08-29T09:18:36.174Z,60.50
2022-08-29T09:21:39.526Z,60.74
2022-08-29T09:24:08.750Z,60.72
2022-08-29T09:26:37.316Z,58.67
2022-08-29T09:29:08.908Z,59.53
2022-08-29T09:31:37.760Z,59.94
2022-08-29T09:34:12.136Z,59.09
2022-08-29T09:36:47.789Z,59.43
2022-08-29T09:39:21.014Z,59.74
2022-08-29T09:41:54.638Z,59.66
2022-08-29T09:44:27.576Z,59.64
2022-08-29T09:47:08.418Z,59.48
2022-08-29T09:49:41.572Z,59.10
2022-08-29T09:52:16.496Z,58.08
2022-08-29T09:54:57.403Z,58.22
2022-08-29T09:57:35.231Z,58.94
2022-08-29T10:00:13.702Z,59.57
2022-08-29T10:02:47.509Z,59.28
2022-08-29T10:05:48.239Z,58.25
2022-08-29T10:08:35.491Z,57.27
2022-08-29T10:11:07.787Z,56.02
2022-08-29T10:13:49.070Z,55.85
2022-08-29T10:16:38.847Z,56.14
2022-08-29T10:19:15.253Z,55.46
2022-08-29T10:21:51.638Z,55.59
2022-08-29T10:24:30.775Z,54.27
2022-08-29T10:27:07.256Z,55.11
2022-08-29T10:29:55.674Z,55.56
2022-08-29T10:32:33.704Z,55.41
2022-08-29T10:35:07.850Z,55.40
2022-08-29T10:37:50.248Z,54.67
2022-08-29T10:40:26.107Z,55.07
2022-08-29T10:43:15.013Z,52.57
2022-08-29T10:45:56.407Z,52.74
2022-08-29T10:48:30.354Z,52.74
2022-08-29T10:51:13.266Z,52.95
2022-08-29T10:53:54.208Z,50.17
2022-08-29T10:56:25.895Z,49.60
2022-08-29T10:59:02.255Z,49.68
2022-08-29T11:01:32.562Z,49.13
2022-08-29T11:04:14.076Z,48.45
2022-08-29T11:06:48.119Z,48.41
2022-08-29T11:09:20.717Z,48.32
2022-08-29T11:12:00.435Z,47.82
2022-08-29T11:14:34.651Z,48.64
2022-08-29T11:17:05.740Z,47.90
2022-08-29T11:19:41.839Z,47.02
2022-08-29T11:22:15.458Z,43.98
2022-08-29T11:24:47.282Z,45.75
2022-08-29T11:27:25.529Z,45.58
2022-08-29T11:30:03.574Z,45.07
2022-08-29T11:32:48.190Z,44.77
2022-08-29T11:35:22.097Z,44.77
2022-08-29T11:38:26.286Z,43.18
2022-08-29T11:41:28.296Z,43.01
2022-08-29T11:44:04.437Z,42.09
2022-08-29T11:46:49.287Z,40.90
2022-08-29T11:49:36.676Z,40.44
2022-08-29T11:52:28.817Z,39.09
2022-08-29T11:55:29.255Z,41.13
2022-08-29T11:58:08.808Z,40.74
2022-08-29T12:00:45.906Z,40.49
2022-08-29T12:03:57.586Z,39.96
2022-08-29T12:06:55.791Z,38.60
2022-08-29T12:09:44.024Z,39.23
2022-08-29T12:12:18.362Z,40.15
2022-08-29T12:14:53.149Z,39.65
2022-08-29T12:18:03.807Z,39.33
2022-08-29T12:20:42.989Z,38.55
2022-08-29T12:23:36.221Z,37.10
2022-08-29T12:26:22.069Z,37.60
2022-08-29T12:29:00.748Z,37.59
2022-08-29T12:32:18.065Z,35.86
2022-08-29T12:35:12.066Z,35.24
2022-08-29T12:37:52.675Z,35.56
2022-08-29T12:40:35.816Z,35.81
2022-08-29T12:43:37.429Z,34.59
2022-08-29T12:46:17.386Z,34.26
2022-08-29T12:48:57.504Z,34.72
2022-08-29T12:51:37.659Z,34.13
2022-08-29T12:54:10.271Z,34.66
2022-08-29T12:56:43.707Z,35.00
2022-08-29T12:59:18.661Z,34.02
2022-08-29T13:01:50.271Z,34.39
2022-08-29T13:04:32.553Z,34.29
2022-08-29T13:07:02.596Z,34.40
2022-08-29T13:09:33.695Z,34.60
2022-08-29T13:12:10.469Z,34.52
2022-08-29T13:14:53.491Z,34.17
2022-08-29T13:17:25.231Z,33.73
2022-08-29T13:20:40.374Z,33.45
2022-08-29T13:23:20.400Z,35.32
2022-08-29T13:25:54.570Z,35.61
2022-08-29T13:28:27.075Z,35.81
2022-08-29T13:31:36.297Z,34.68
2022-08-29T13:34:24.564Z,35.39
2022-08-29T13:36:59.434Z,35.88
2022-08-29T13:39:39.276Z,35.87
2022-08-29T13:42:33.054Z,35.53
2022-08-29T13:45:15.419Z,35.96
2022-08-29T13:47:57.124Z,36.49
2022-08-29T13:50:27.083Z,35.37
2022-08-29T13:52:56.572Z,35.45
2022-08-29T13:55:29.335Z,36.11
2022-08-29T13:57:57.859Z,35.18
2022-08-29T14:00:35.218Z,35.23
2022-08-29T14:03:12.278Z,35.03
2022-08-29T14:05:50.154Z,35.59
2022-08-29T14:08:20.412Z,35.66
2022-08-29T14:10:54.147Z,36.24
2022-08-29T14:13:22.774Z,36.61
2022-08-29T14:16:01.267Z,36.26
2022-08-29T14:18:46.753Z,35.39
2022-08-29T14:21:24.925Z,36.63
2022-08-29T14:24:04.921Z,37.16
2022-08-29T14:26:34.505Z,38.21
2022-08-29T14:29:03.572Z,37.68
2022-08-29T14:31:34.664Z,37.48
2022-08-29T14:34:11.710Z,38.44
2022-08-29T14:36:43.544Z,39.00
2022-08-29T14:39:17.564Z,38.45
2022-08-29T14:41:48.737Z,38.77
2022-08-29T14:44:24.232Z,38.89
2022-08-29T14:46:53.169Z,38.78
2022-08-29T14:49:21.761Z,38.72
2022-08-29T14:51:50.063Z,38.43
2022-08-29T14:54:21.162Z,38.44
2022-08-29T14:56:53.667Z,38.70
2022-08-29T14:59:27.702Z,39.15
2022-08-29T15:01:57.550Z,39.87
2022-08-29T15:04:35.328Z,39.25
2022-08-29T15:07:08.787Z,38.82
2022-08-29T15:09:38.398Z,38.67
2022-08-29T15:12:09.312Z,38.17
2022-08-29T15:14:38.042Z,37.64
2022-08-29T15:17:07.891Z,37.92
2022-08-29T15:22:27.069Z,37.50
2022-08-29T15:24:55.876Z,37.55
2022-08-29T15:27:28.681Z,36.97
2022-08-29T15:29:58.417Z,36.99
2022-08-29T15:32:26.921Z,36.98
2022-08-29T15:34:56.168Z,36.94
2022-08-29T15:37:25.100Z,37.30
2022-08-29T15:39:55.085Z,36.73
2022-08-29T15:42:31.131Z,37.48
2022-08-29T15:45:07.710Z,36.92
2022-08-29T15:47:37.449Z,36.62
2022-08-29T15:50:15.745Z,37.24
2022-08-29T15:52:45.461Z,37.32
2022-08-29T15:55:14.016Z,37.19
2022-08-29T15:57:51.989Z,36.67
2022-08-29T16:00:31.167Z,36.18
2022-08-29T16:03:12.624Z,35.50
2022-08-29T16:05:43.002Z,35.25
2022-08-29T16:08:16.647Z,34.92
2022-08-29T16:10:50.274Z,35.28
2022-08-29T16:13:18.946Z,34.46
2022-08-29T16:15:59.243Z,33.50
2022-08-29T16:18:31.445Z,33.33
2022-08-29T16:21:02.682Z,33.16
2022-08-29T16:23:32.168Z,33.15
2022-08-29T16:26:09.227Z,33.73
2022-08-29T16:28:39.891Z,33.70
2022-08-29T16:31:13.711Z,33.54
2022-08-29T16:33:44.121Z,33.49
2022-08-29T16:36:17.636Z,34.60
2022-08-29T16:38:46.944Z,35.12
2022-08-29T16:41:18.842Z,35.66
2022-08-29T16:43:52.204Z,36.41
2022-08-29T16:46:27.286Z,36.47
2022-08-29T16:49:00.690Z,37.13
2022-08-29T16:51:30.215Z,37.88
2022-08-29T16:54:02.533Z,38.44
2022-08-29T16:56:32.977Z,40.03
2022-08-29T16:59:01.836Z,40.30
2022-08-29T17:01:37.059Z,40.08
2022-08-29T17:04:07.544Z,39.51
2022-08-29T17:06:37.568Z,40.36
2022-08-29T17:09:08.859Z,40.36
2022-08-29T17:11:38.415Z,40.51
2022-08-29T17:14:17.354Z,41.04
2022-08-29T17:16:49.526Z,41.09
2022-08-29T17:19:19.855Z,41.23
2022-08-29T17:21:48.067Z,41.66
2022-08-29T17:24:16.403Z,42.12
2022-08-29T17:26:53.883Z,42.00
2022-08-29T17:29:25.813Z,42.04
2022-08-29T17:31:56.497Z,42.15
2022-08-29T17:34:25.755Z,42.20
2022-08-29T17:36:56.589Z,42.21
2022-08-29T17:39:28.295Z,42.22
2022-08-29T17:42:10.435Z,42.50
2022-08-29T17:44:47.873Z,42.95
2022-08-29T17:47:20.622Z,42.78
2022-08-29T17:49:50.045Z,43.53
2022-08-29T17:52:20.799Z,43.51
2022-08-29T17:54:50.118Z,43.52
2022-08-29T17:57:19.095Z,43.86
2022-08-29T17:59:48.853Z,43.50
2022-08-29T18:02:20.738Z,44.37
2022-08-29T18:04:50.543Z,44.19
2022-08-29T18:07:19.121Z,44.00
2022-08-29T18:09:49.284Z,44.60
2022-08-29T18:12:20.388Z,44.76
2022-08-29T18:14:54.291Z,44.48
2022-08-29T18:17:24.770Z,44.90
2022-08-29T18:19:54.958Z,44.93
2022-08-29T18:22:24.167Z,45.24
2022-08-29T18:24:56.046Z,45.75
2022-08-29T18:27:27.713Z,46.10
2022-08-29T18:29:57.284Z,46.30
2022-08-29T18:32:37.179Z,46.51
2022-08-29T18:35:08.519Z,46.78
2022-08-29T18:37:37.130Z,47.07
2022-08-29T18:40:06.112Z,47.22
2022-08-29T18:42:40.953Z,47.85
2022-08-29T18:45:14.332Z,47.80
2022-08-29T18:47:44.485Z,47.58
2022-08-29T18:50:31.465Z,48.05
2022-08-29T18:53:02.779Z,48.25
2022-08-29T18:55:32.221Z,49.25
2022-08-29T18:58:03.934Z,49.73
2022-08-29T19:00:37.728Z,50.41
2022-08-29T19:03:07.645Z,51.04
2022-08-29T19:05:38.681Z,51.64
2022-08-29T19:08:08.913Z,52.24
2022-08-29T19:10:37.302Z,52.55
2022-08-29T19:13:08.154Z,53.28
2022-08-29T19:15:41.421Z,53.29
2022-08-29T19:18:13.950Z,53.50
2022-08-29T19:21:01.429Z,54.44
2022-08-29T19:23:30.726Z,54.51
2022-08-29T19:26:01.289Z,54.50
2022-08-29T19:28:32.931Z,55.08
2022-08-29T19:31:09.873Z,55.66
2022-08-29T19:33:40.015Z,55.94
2022-08-29T19:36:14.881Z,55.98
2022-08-29T19:38:46.667Z,56.68
2022-08-29T19:41:17.867Z,56.40
2022-08-29T19:43:50.885Z,56.86
2022-08-29T19:46:25.424Z,57.56
2022-08-29T19:48:58.126Z,56.76
2022-08-29T19:51:29.805Z,57.40
2022-08-29T19:54:01.665Z,57.52
2022-08-29T19:56:33.376Z,57.69
2022-08-29T19:59:02.537Z,57.33
2022-08-29T20:01:31.934Z,56.44
2022-08-29T20:04:06.726Z,56.58
2022-08-29T20:06:35.342Z,56.19
2022-08-29T20:09:07.517Z,54.72
2022-08-29T20:11:43.682Z,54.89
2022-08-29T20:14:14.061Z,54.70
2022-08-29T20:16:45.530Z,54.29
2022-08-29T20:19:15.907Z,53.70
2022-08-29T20:21:47.808Z,54.53
2022-08-29T20:24:16.730Z,55.26
2022-08-29T20:26:50.564Z,56.66
2022-08-29T20:29:22.594Z,57.82
2022-08-29T20:31:51.975Z,58.32
2022-08-29T20:34:25.170Z,58.48
2022-08-29T20:37:12.763Z,58.84
2022-08-29T20:39:46.547Z,59.85
2022-08-29T20:42:15.249Z,59.79
2022-08-29T20:44:45.672Z,59.83
2022-08-29T20:47:15.413Z,59.86
2022-08-29T20:49:45.940Z,60.27
2022-08-29T20:52:24.373Z,60.13
2022-08-29T20:54:55.363Z,60.70
2022-08-29T20:57:23.574Z,60.77
2022-08-29T20:59:55.095Z,60.50
2022-08-29T21:02:25.069Z,61.33
2022-08-29T21:05:12.650Z,60.40
2022-08-29T21:07:46.585Z,60.28
2022-08-29T21:10:19.079Z,60.56
2022-08-29T21:12:48.805Z,60.02
2022-08-29T21:15:19.837Z,60.12
2022-08-29T21:17:50.536Z,60.49
2022-08-29T21:20:21.650Z,60.51
2022-08-29T21:22:49.879Z,60.08
2022-08-29T21:25:19.948Z,59.89
2022-08-29T21:27:55.977Z,58.92
2022-08-29T21:30:25.531Z,57.98
2022-08-29T21:32:55.547Z,57.33
2022-08-29T21:35:32.860Z,55.50
2022-08-29T21:38:03.162Z,55.85
2022-08-29T21:40:33.645Z,55.00
2022-08-29T21:43:02.324Z,55.90
2022-08-29T21:45:35.303Z,56.42
2022-08-29T21:48:07.275Z,55.94
2022-08-29T21:50:38.681Z,56.22
2022-08-29T21:53:08.022Z,56.65
2022-08-29T21:55:36.349Z,56.68
2022-08-29T21:58:07.074Z,57.18
2022-08-29T22:00:36.975Z,57.29
2022-08-29T22:03:18.068Z,57.23
2022-08-29T22:05:50.302Z,56.96
2022-08-29T22:08:29.777Z,56.94
2022-08-29T22:10:58.698Z,56.62
2022-08-29T22:13:31.755Z,57.39
2022-08-29T22:16:20.081Z,57.83
2022-08-29T22:18:53.525Z,57.70
2022-08-29T22:21:38.100Z,57.55
2022-08-29T22:24:24.016Z,57.71
2022-08-29T22:26:54.582Z,58.09
2022-08-29T22:29:22.780Z,57.81
2022-08-29T22:31:51.385Z,57.68
2022-08-29T22:34:19.903Z,57.91
2022-08-29T22:36:49.444Z,58.34
2022-08-29T22:39:19.135Z,58.27
2022-08-29T22:41:47.842Z,58.75
2022-08-29T22:44:59.884Z,58.74
2022-08-29T22:47:09.184Z,58.68
2022-08-29T22:49:40.665Z,58.52
2022-08-29T22:52:13.102Z,59.25
2022-08-29T22:54:41.659Z,58.94
2022-08-29T22:57:12.589Z,59.20
2022-08-29T22:59:42.615Z,59.42
2022-08-29T23:02:12.360Z,59.44
2022-08-29T23:04:42.260Z,59.40
2022-08-29T23:07:12.357Z,59.14
2022-08-29T23:09:42.787Z,60.15
2022-08-29T23:12:12.745Z,59.43
2022-08-29T23:14:43.468Z,59.66
2022-08-29T23:17:11.587Z,58.77
2022-08-29T23:19:41.390Z,58.55
2022-08-29T23:22:13.467Z,58.83
2022-08-29T23:24:53.797Z,58.69
2022-08-29T23:27:30.875Z,61.53
2022-08-29T23:30:00.050Z,63.60
2022-08-29T23:32:31.322Z,64.25
2022-08-29T23:34:59.465Z,64.76
2022-08-29T23:37:29.929Z,65.37
2022-08-29T23:39:59.782Z,65.42
2022-08-29T23:42:29.293Z,66.39
2022-08-29T23:44:58.859Z,67.04
2022-08-29T23:47:28.575Z,68.26
2022-08-29T23:49:57.488Z,67.03
2022-08-29T23:52:26.700Z,67.85
2022-08-29T23:54:57.025Z,68.31
2022-08-29T23:57:26.162Z,68.28
